sensor_id;sensor_type;location;lat;lon;timestamp;P1;durP1;ratioP1;P2;durP2;ratioP2
16820;SDS011;8527;49.740;6.604;2022-07-29T00:00:03;8.15;;;3.88;;
16820;SDS011;8527;49.740;6.604;2022-07-29T00:05:03;3.78;;;3.00;;
16820;SDS011;8527;49.740;6.604;2022-07-29T00:10:11;5.72;;;3.08;;
16820;SDS011;8527;49.740;6.604;2022-07-29T00:15:15;5.05;;;3.25;;
16820;SDS011;8527;49.740;6.604;2022-07-29T00:20:17;7.88;;;4.15;;
16820;SDS011;8527;49.740;6.604;2022-07-29T00:25:21;8.77;;;4.50;;
16820;SDS011;8527;49.740;6.604;2022-07-29T00:30:19;7.18;;;4.03;;
16820;SDS011;8527;49.740;6.604;2022-07-29T00:35:21;6.97;;;3.80;;
16820;SDS011;8527;49.740;6.604;2022-07-29T00:40:35;5.65;;;3.25;;
16820;SDS011;8527;49.740;6.604;2022-07-29T00:45:34;5.85;;;3.78;;
16820;SDS011;8527;49.740;6.604;2022-07-29T00:50:36;6.10;;;3.47;;
16820;SDS011;8527;49.740;6.604;2022-07-29T00:55:44;7.47;;;3.25;;
16820;SDS011;8527;49.740;6.604;2022-07-29T01:00:43;6.20;;;2.90;;
16820;SDS011;8527;49.740;6.604;2022-07-29T01:05:48;4.30;;;2.65;;
16820;SDS011;8527;49.740;6.604;2022-07-29T01:10:53;4.03;;;2.45;;
16820;SDS011;8527;49.740;6.604;2022-07-29T01:15:54;8.88;;;2.70;;
16820;SDS011;8527;49.740;6.604;2022-07-29T01:26:37;5.00;;;2.53;;
16820;SDS011;8527;49.740;6.604;2022-07-29T01:31:47;6.43;;;2.70;;
16820;SDS011;8527;49.740;6.604;2022-07-29T01:36:57;5.00;;;2.70;;
16820;SDS011;8527;49.740;6.604;2022-07-29T01:42:06;7.55;;;2.60;;
16820;SDS011;8527;49.740;6.604;2022-07-29T01:47:14;4.13;;;2.45;;
16820;SDS011;8527;49.740;6.604;2022-07-29T01:52:19;6.35;;;2.90;;
16820;SDS011;8527;49.740;6.604;2022-07-29T01:57:25;6.80;;;2.80;;
16820;SDS011;8527;49.740;6.604;2022-07-29T02:02:28;5.90;;;2.60;;
16820;SDS011;8527;49.740;6.604;2022-07-29T02:07:33;3.38;;;2.53;;
16820;SDS011;8527;49.740;6.604;2022-07-29T02:12:35;4.50;;;2.70;;
16820;SDS011;8527;49.740;6.604;2022-07-29T02:17:39;3.97;;;2.30;;
16820;SDS011;8527;49.740;6.604;2022-07-29T02:27:42;5.20;;;2.50;;
16820;SDS011;8527;49.740;6.604;2022-07-29T02:32:45;4.35;;;2.40;;
16820;SDS011;8527;49.740;6.604;2022-07-29T02:37:48;7.05;;;2.60;;
16820;SDS011;8527;49.740;6.604;2022-07-29T02:43:00;9.02;;;2.70;;
16820;SDS011;8527;49.740;6.604;2022-07-29T02:48:09;5.95;;;2.78;;
16820;SDS011;8527;49.740;6.604;2022-07-29T02:53:12;3.60;;;2.40;;
16820;SDS011;8527;49.740;6.604;2022-07-29T02:58:18;4.03;;;2.45;;
16820;SDS011;8527;49.740;6.604;2022-07-29T03:03:29;4.95;;;2.40;;
16820;SDS011;8527;49.740;6.604;2022-07-29T03:08:30;5.95;;;2.40;;
16820;SDS011;8527;49.740;6.604;2022-07-29T03:13:30;6.75;;;2.42;;
16820;SDS011;8527;49.740;6.604;2022-07-29T03:18:31;2.90;;;2.30;;
16820;SDS011;8527;49.740;6.604;2022-07-29T03:23:33;4.25;;;2.47;;
16820;SDS011;8527;49.740;6.604;2022-07-29T03:28:32;3.55;;;2.50;;
16820;SDS011;8527;49.740;6.604;2022-07-29T03:33:33;4.22;;;2.35;;
16820;SDS011;8527;49.740;6.604;2022-07-29T03:38:38;5.30;;;2.37;;
16820;SDS011;8527;49.740;6.604;2022-07-29T03:43:40;4.65;;;2.60;;
16820;SDS011;8527;49.740;6.604;2022-07-29T03:48:45;4.10;;;2.58;;
16820;SDS011;8527;49.740;6.604;2022-07-29T03:53:50;5.57;;;2.55;;
16820;SDS011;8527;49.740;6.604;2022-07-29T03:58:48;3.65;;;2.60;;
16820;SDS011;8527;49.740;6.604;2022-07-29T04:03:51;4.32;;;2.47;;
16820;SDS011;8527;49.740;6.604;2022-07-29T04:08:52;5.50;;;2.88;;
16820;SDS011;8527;49.740;6.604;2022-07-29T04:13:50;7.53;;;2.67;;
16820;SDS011;8527;49.740;6.604;2022-07-29T04:18:53;7.38;;;2.72;;
16820;SDS011;8527;49.740;6.604;2022-07-29T04:23:54;6.20;;;2.60;;
16820;SDS011;8527;49.740;6.604;2022-07-29T04:28:53;8.63;;;2.90;;
16820;SDS011;8527;49.740;6.604;2022-07-29T04:33:54;3.25;;;2.40;;
16820;SDS011;8527;49.740;6.604;2022-07-29T04:38:52;6.53;;;2.65;;
16820;SDS011;8527;49.740;6.604;2022-07-29T04:43:56;6.97;;;2.53;;
16820;SDS011;8527;49.740;6.604;2022-07-29T04:48:58;5.13;;;2.80;;
16820;SDS011;8527;49.740;6.604;2022-07-29T04:53:57;3.80;;;2.50;;
16820;SDS011;8527;49.740;6.604;2022-07-29T04:58:58;3.97;;;2.55;;
16820;SDS011;8527;49.740;6.604;2022-07-29T05:04:06;4.40;;;2.40;;
16820;SDS011;8527;49.740;6.604;2022-07-29T05:09:05;5.13;;;2.53;;
16820;SDS011;8527;49.740;6.604;2022-07-29T05:14:03;3.67;;;2.30;;
16820;SDS011;8527;49.740;6.604;2022-07-29T05:19:02;3.50;;;2.40;;
16820;SDS011;8527;49.740;6.604;2022-07-29T05:24:15;8.93;;;3.10;;
16820;SDS011;8527;49.740;6.604;2022-07-29T05:29:20;6.88;;;3.15;;
16820;SDS011;8527;49.740;6.604;2022-07-29T05:34:21;7.43;;;3.58;;
16820;SDS011;8527;49.740;6.604;2022-07-29T05:39:37;6.82;;;3.70;;
16820;SDS011;8527;49.740;6.604;2022-07-29T05:44:36;5.95;;;3.58;;
16820;SDS011;8527;49.740;6.604;2022-07-29T05:49:45;6.47;;;3.77;;
16820;SDS011;8527;49.740;6.604;2022-07-29T05:54:52;9.18;;;3.60;;
16820;SDS011;8527;49.740;6.604;2022-07-29T05:59:51;7.15;;;4.00;;
16820;SDS011;8527;49.740;6.604;2022-07-29T06:04:55;5.75;;;3.42;;
16820;SDS011;8527;49.740;6.604;2022-07-29T06:10:00;6.88;;;3.40;;
16820;SDS011;8527;49.740;6.604;2022-07-29T06:15:05;7.72;;;3.70;;
16820;SDS011;8527;49.740;6.604;2022-07-29T06:20:18;8.07;;;3.70;;
16820;SDS011;8527;49.740;6.604;2022-07-29T06:25:19;11.45;;;4.18;;
16820;SDS011;8527;49.740;6.604;2022-07-29T06:30:20;9.18;;;3.65;;
16820;SDS011;8527;49.740;6.604;2022-07-29T06:35:21;7.88;;;3.70;;
16820;SDS011;8527;49.740;6.604;2022-07-29T06:40:22;12.77;;;3.80;;
16820;SDS011;8527;49.740;6.604;2022-07-29T06:45:38;10.43;;;3.97;;
16820;SDS011;8527;49.740;6.604;2022-07-29T06:50:42;13.75;;;3.58;;
16820;SDS011;8527;49.740;6.604;2022-07-29T06:55:45;10.65;;;4.00;;
16820;SDS011;8527;49.740;6.604;2022-07-29T07:00:47;12.82;;;3.70;;
16820;SDS011;8527;49.740;6.604;2022-07-29T07:05:51;10.02;;;3.40;;
16820;SDS011;8527;49.740;6.604;2022-07-29T07:10:52;8.57;;;3.30;;
16820;SDS011;8527;49.740;6.604;2022-07-29T07:15:54;6.10;;;2.92;;
16820;SDS011;8527;49.740;6.604;2022-07-29T07:20:56;8.82;;;3.58;;
16820;SDS011;8527;49.740;6.604;2022-07-29T07:25:56;4.90;;;3.20;;
16820;SDS011;8527;49.740;6.604;2022-07-29T07:30:54;13.68;;;3.80;;
16820;SDS011;8527;49.740;6.604;2022-07-29T07:35:55;10.25;;;3.30;;
16820;SDS011;8527;49.740;6.604;2022-07-29T07:40:54;8.80;;;3.70;;
16820;SDS011;8527;49.740;6.604;2022-07-29T07:45:53;10.13;;;3.70;;
16820;SDS011;8527;49.740;6.604;2022-07-29T07:50:51;12.75;;;3.60;;
16820;SDS011;8527;49.740;6.604;2022-07-29T07:55:52;11.38;;;3.65;;
16820;SDS011;8527;49.740;6.604;2022-07-29T08:00:51;10.00;;;3.40;;
16820;SDS011;8527;49.740;6.604;2022-07-29T08:05:49;14.63;;;3.65;;
16820;SDS011;8527;49.740;6.604;2022-07-29T08:10:51;12.85;;;3.83;;
16820;SDS011;8527;49.740;6.604;2022-07-29T08:15:50;11.13;;;3.13;;
16820;SDS011;8527;49.740;6.604;2022-07-29T08:20:56;5.03;;;3.13;;
16820;SDS011;8527;49.740;6.604;2022-07-29T08:25:57;10.50;;;3.35;;
16820;SDS011;8527;49.740;6.604;2022-07-29T08:30:55;8.80;;;3.30;;
16820;SDS011;8527;49.740;6.604;2022-07-29T08:35:54;15.57;;;3.33;;
16820;SDS011;8527;49.740;6.604;2022-07-29T08:40:58;10.40;;;3.05;;
16820;SDS011;8527;49.740;6.604;2022-07-29T08:45:58;9.70;;;3.22;;
16820;SDS011;8527;49.740;6.604;2022-07-29T08:50:58;7.53;;;2.97;;
16820;SDS011;8527;49.740;6.604;2022-07-29T08:55:59;8.02;;;3.40;;
16820;SDS011;8527;49.740;6.604;2022-07-29T09:01:00;8.02;;;3.30;;
16820;SDS011;8527;49.740;6.604;2022-07-29T09:06:04;4.43;;;2.88;;
16820;SDS011;8527;49.740;6.604;2022-07-29T09:11:09;7.65;;;2.97;;
16820;SDS011;8527;49.740;6.604;2022-07-29T09:16:07;10.07;;;3.78;;
16820;SDS011;8527;49.740;6.604;2022-07-29T09:21:07;5.55;;;3.00;;
16820;SDS011;8527;49.740;6.604;2022-07-29T09:26:21;8.52;;;3.42;;
16820;SDS011;8527;49.740;6.604;2022-07-29T09:31:34;12.85;;;3.38;;
16820;SDS011;8527;49.740;6.604;2022-07-29T09:36:48;9.50;;;3.25;;
16820;SDS011;8527;49.740;6.604;2022-07-29T09:41:51;10.20;;;3.22;;
16820;SDS011;8527;49.740;6.604;2022-07-29T09:46:54;5.85;;;2.78;;
16820;SDS011;8527;49.740;6.604;2022-07-29T09:52:01;10.32;;;3.20;;
16820;SDS011;8527;49.740;6.604;2022-07-29T09:57:05;6.95;;;3.15;;
16820;SDS011;8527;49.740;6.604;2022-07-29T10:02:12;3.88;;;2.80;;
16820;SDS011;8527;49.740;6.604;2022-07-29T10:07:13;5.40;;;2.58;;
16820;SDS011;8527;49.740;6.604;2022-07-29T10:12:17;4.97;;;2.70;;
16820;SDS011;8527;49.740;6.604;2022-07-29T10:17:16;7.97;;;2.72;;
16820;SDS011;8527;49.740;6.604;2022-07-29T10:22:15;4.07;;;2.88;;
16820;SDS011;8527;49.740;6.604;2022-07-29T10:27:17;3.38;;;2.40;;
16820;SDS011;8527;49.740;6.604;2022-07-29T10:32:33;5.45;;;2.50;;
16820;SDS011;8527;49.740;6.604;2022-07-29T10:37:42;5.38;;;2.65;;
16820;SDS011;8527;49.740;6.604;2022-07-29T10:42:55;14.35;;;2.78;;
16820;SDS011;8527;49.740;6.604;2022-07-29T10:48:04;4.43;;;2.80;;
16820;SDS011;8527;49.740;6.604;2022-07-29T10:53:04;7.65;;;2.67;;
16820;SDS011;8527;49.740;6.604;2022-07-29T10:58:15;9.75;;;2.80;;
16820;SDS011;8527;49.740;6.604;2022-07-29T11:13:48;5.97;;;2.75;;
16820;SDS011;8527;49.740;6.604;2022-07-29T11:24:19;4.80;;;2.88;;
16820;SDS011;8527;49.740;6.604;2022-07-29T11:29:25;6.07;;;2.60;;
16820;SDS011;8527;49.740;6.604;2022-07-29T11:34:25;11.02;;;2.53;;
16820;SDS011;8527;49.740;6.604;2022-07-29T11:39:27;5.43;;;2.83;;
16820;SDS011;8527;49.740;6.604;2022-07-29T11:49:59;4.72;;;2.53;;
16820;SDS011;8527;49.740;6.604;2022-07-29T12:00:00;6.28;;;2.50;;
16820;SDS011;8527;49.740;6.604;2022-07-29T12:05:02;6.60;;;2.65;;
16820;SDS011;8527;49.740;6.604;2022-07-29T12:10:00;4.40;;;2.20;;
16820;SDS011;8527;49.740;6.604;2022-07-29T12:15:10;5.25;;;2.55;;
16820;SDS011;8527;49.740;6.604;2022-07-29T12:20:24;9.98;;;2.60;;
16820;SDS011;8527;49.740;6.604;2022-07-29T12:25:24;8.95;;;3.05;;
16820;SDS011;8527;49.740;6.604;2022-07-29T12:30:22;3.45;;;2.50;;
16820;SDS011;8527;49.740;6.604;2022-07-29T12:35:36;5.95;;;2.50;;
16820;SDS011;8527;49.740;6.604;2022-07-29T12:40:36;7.35;;;2.90;;
16820;SDS011;8527;49.740;6.604;2022-07-29T12:45:38;5.80;;;2.72;;
16820;SDS011;8527;49.740;6.604;2022-07-29T12:55:57;7.60;;;2.83;;
16820;SDS011;8527;49.740;6.604;2022-07-29T13:01:01;8.73;;;2.80;;
16820;SDS011;8527;49.740;6.604;2022-07-29T13:06:04;5.50;;;2.80;;
16820;SDS011;8527;49.740;6.604;2022-07-29T13:11:03;6.65;;;2.70;;
16820;SDS011;8527;49.740;6.604;2022-07-29T13:16:07;6.55;;;2.50;;
16820;SDS011;8527;49.740;6.604;2022-07-29T13:21:13;5.13;;;2.50;;
16820;SDS011;8527;49.740;6.604;2022-07-29T13:26:15;5.18;;;2.63;;
16820;SDS011;8527;49.740;6.604;2022-07-29T13:31:14;3.97;;;2.28;;
16820;SDS011;8527;49.740;6.604;2022-07-29T13:36:19;3.75;;;2.45;;
16820;SDS011;8527;49.740;6.604;2022-07-29T13:41:20;2.95;;;2.33;;
16820;SDS011;8527;49.740;6.604;2022-07-29T13:46:18;5.40;;;2.28;;
16820;SDS011;8527;49.740;6.604;2022-07-29T13:51:25;7.10;;;2.70;;
16820;SDS011;8527;49.740;6.604;2022-07-29T13:56:27;5.78;;;2.40;;
16820;SDS011;8527;49.740;6.604;2022-07-29T14:01:25;4.30;;;2.15;;
16820;SDS011;8527;49.740;6.604;2022-07-29T14:06:29;4.63;;;2.50;;
16820;SDS011;8527;49.740;6.604;2022-07-29T14:11:28;3.60;;;2.40;;
16820;SDS011;8527;49.740;6.604;2022-07-29T14:16:26;7.00;;;2.30;;
16820;SDS011;8527;49.740;6.604;2022-07-29T14:21:36;4.70;;;2.60;;
16820;SDS011;8527;49.740;6.604;2022-07-29T14:26:37;4.70;;;2.50;;
16820;SDS011;8527;49.740;6.604;2022-07-29T14:31:36;7.35;;;2.50;;
16820;SDS011;8527;49.740;6.604;2022-07-29T14:36:37;6.80;;;2.40;;
16820;SDS011;8527;49.740;6.604;2022-07-29T14:41:38;11.88;;;2.50;;
16820;SDS011;8527;49.740;6.604;2022-07-29T14:46:39;6.75;;;2.65;;
16820;SDS011;8527;49.740;6.604;2022-07-29T14:51:40;5.18;;;2.58;;
16820;SDS011;8527;49.740;6.604;2022-07-29T14:56:38;5.20;;;2.40;;
16820;SDS011;8527;49.740;6.604;2022-07-29T15:01:45;5.78;;;2.75;;
16820;SDS011;8527;49.740;6.604;2022-07-29T15:06:47;6.65;;;2.55;;
16820;SDS011;8527;49.740;6.604;2022-07-29T15:11:46;7.43;;;2.70;;
16820;SDS011;8527;49.740;6.604;2022-07-29T15:16:45;12.30;;;3.05;;
16820;SDS011;8527;49.740;6.604;2022-07-29T15:21:55;8.07;;;2.95;;
16820;SDS011;8527;49.740;6.604;2022-07-29T15:26:56;6.82;;;2.60;;
16820;SDS011;8527;49.740;6.604;2022-07-29T15:31:55;5.22;;;2.80;;
16820;SDS011;8527;49.740;6.604;2022-07-29T15:36:59;4.85;;;2.75;;
16820;SDS011;8527;49.740;6.604;2022-07-29T15:41:57;6.72;;;2.50;;
16820;SDS011;8527;49.740;6.604;2022-07-29T15:46:57;6.68;;;2.30;;
16820;SDS011;8527;49.740;6.604;2022-07-29T15:52:05;7.80;;;2.88;;
16820;SDS011;8527;49.740;6.604;2022-07-29T15:57:05;7.03;;;2.90;;
16820;SDS011;8527;49.740;6.604;2022-07-29T16:02:04;5.40;;;2.80;;
16820;SDS011;8527;49.740;6.604;2022-07-29T16:07:12;5.40;;;2.97;;
16820;SDS011;8527;49.740;6.604;2022-07-29T16:12:13;6.68;;;3.28;;
16820;SDS011;8527;49.740;6.604;2022-07-29T16:17:14;8.18;;;3.13;;
16820;SDS011;8527;49.740;6.604;2022-07-29T16:22:15;10.18;;;3.80;;
16820;SDS011;8527;49.740;6.604;2022-07-29T16:27:14;5.90;;;3.10;;
16820;SDS011;8527;49.740;6.604;2022-07-29T16:32:12;5.93;;;3.13;;
16820;SDS011;8527;49.740;6.604;2022-07-29T16:37:13;7.78;;;3.20;;
16820;SDS011;8527;49.740;6.604;2022-07-29T16:42:16;7.30;;;3.50;;
16820;SDS011;8527;49.740;6.604;2022-07-29T16:47:23;10.93;;;3.50;;
16820;SDS011;8527;49.740;6.604;2022-07-29T16:52:25;9.55;;;3.70;;
16820;SDS011;8527;49.740;6.604;2022-07-29T16:57:23;6.60;;;3.30;;
16820;SDS011;8527;49.740;6.604;2022-07-29T17:02:21;9.73;;;3.67;;
16820;SDS011;8527;49.740;6.604;2022-07-29T17:07:20;10.43;;;3.60;;
16820;SDS011;8527;49.740;6.604;2022-07-29T17:12:21;9.73;;;3.60;;
16820;SDS011;8527;49.740;6.604;2022-07-29T17:17:22;9.65;;;3.80;;
16820;SDS011;8527;49.740;6.604;2022-07-29T17:22:23;7.75;;;3.50;;
16820;SDS011;8527;49.740;6.604;2022-07-29T17:27:24;7.72;;;3.92;;
16820;SDS011;8527;49.740;6.604;2022-07-29T17:32:25;7.00;;;3.80;;
16820;SDS011;8527;49.740;6.604;2022-07-29T17:37:24;5.93;;;3.47;;
16820;SDS011;8527;49.740;6.604;2022-07-29T17:42:25;6.05;;;3.40;;
16820;SDS011;8527;49.740;6.604;2022-07-29T17:47:24;8.68;;;3.95;;
16820;SDS011;8527;49.740;6.604;2022-07-29T17:52:35;13.10;;;5.63;;
16820;SDS011;8527;49.740;6.604;2022-07-29T17:57:36;6.15;;;3.83;;
16820;SDS011;8527;49.740;6.604;2022-07-29T18:02:34;8.98;;;3.78;;
16820;SDS011;8527;49.740;6.604;2022-07-29T18:07:33;8.27;;;3.42;;
16820;SDS011;8527;49.740;6.604;2022-07-29T18:12:32;12.32;;;3.80;;
16820;SDS011;8527;49.740;6.604;2022-07-29T18:17:42;8.52;;;3.97;;
16820;SDS011;8527;49.740;6.604;2022-07-29T18:22:43;7.18;;;3.70;;
16820;SDS011;8527;49.740;6.604;2022-07-29T18:27:41;7.65;;;3.67;;
16820;SDS011;8527;49.740;6.604;2022-07-29T18:32:43;5.65;;;3.50;;
16820;SDS011;8527;49.740;6.604;2022-07-29T18:37:43;6.78;;;3.70;;
16820;SDS011;8527;49.740;6.604;2022-07-29T18:42:43;5.70;;;3.97;;
16820;SDS011;8527;49.740;6.604;2022-07-29T18:47:47;5.47;;;3.78;;
16820;SDS011;8527;49.740;6.604;2022-07-29T18:52:48;10.57;;;3.63;;
16820;SDS011;8527;49.740;6.604;2022-07-29T18:57:47;4.85;;;3.50;;
16820;SDS011;8527;49.740;6.604;2022-07-29T19:02:55;4.70;;;3.55;;
16820;SDS011;8527;49.740;6.604;2022-07-29T19:07:53;10.05;;;3.90;;
16820;SDS011;8527;49.740;6.604;2022-07-29T19:12:52;7.20;;;3.40;;
16820;SDS011;8527;49.740;6.604;2022-07-29T19:17:51;4.88;;;3.47;;
16820;SDS011;8527;49.740;6.604;2022-07-29T19:22:54;10.48;;;4.20;;
16820;SDS011;8527;49.740;6.604;2022-07-29T19:27:53;8.38;;;3.60;;
16820;SDS011;8527;49.740;6.604;2022-07-29T19:32:51;5.85;;;3.55;;
16820;SDS011;8527;49.740;6.604;2022-07-29T19:37:53;5.88;;;3.45;;
16820;SDS011;8527;49.740;6.604;2022-07-29T19:42:53;6.80;;;3.88;;
16820;SDS011;8527;49.740;6.604;2022-07-29T19:47:53;4.18;;;3.10;;
16820;SDS011;8527;49.740;6.604;2022-07-29T19:52:54;4.75;;;3.35;;
16820;SDS011;8527;49.740;6.604;2022-07-29T19:57:56;11.70;;;3.85;;
16820;SDS011;8527;49.740;6.604;2022-07-29T20:02:57;6.18;;;3.13;;
16820;SDS011;8527;49.740;6.604;2022-07-29T20:07:59;7.30;;;3.70;;
16820;SDS011;8527;49.740;6.604;2022-07-29T20:12:58;6.47;;;3.60;;
16820;SDS011;8527;49.740;6.604;2022-07-29T20:17:57;6.20;;;3.42;;
16820;SDS011;8527;49.740;6.604;2022-07-29T20:23:01;4.57;;;3.28;;
16820;SDS011;8527;49.740;6.604;2022-07-29T20:27:59;7.20;;;3.15;;
16820;SDS011;8527;49.740;6.604;2022-07-29T20:32:59;5.07;;;3.17;;
16820;SDS011;8527;49.740;6.604;2022-07-29T20:37:58;4.32;;;3.10;;
16820;SDS011;8527;49.740;6.604;2022-07-29T20:42:59;10.57;;;3.35;;
16820;SDS011;8527;49.740;6.604;2022-07-29T20:48:00;4.72;;;3.33;;
16820;SDS011;8527;49.740;6.604;2022-07-29T20:53:01;6.28;;;2.88;;
16820;SDS011;8527;49.740;6.604;2022-07-29T20:57:59;4.53;;;3.03;;
16820;SDS011;8527;49.740;6.604;2022-07-29T21:02:58;4.10;;;2.92;;
16820;SDS011;8527;49.740;6.604;2022-07-29T21:07:56;6.85;;;3.22;;
16820;SDS011;8527;49.740;6.604;2022-07-29T21:13:02;5.57;;;2.95;;
16820;SDS011;8527;49.740;6.604;2022-07-29T21:18:03;6.45;;;3.30;;
16820;SDS011;8527;49.740;6.604;2022-07-29T21:23:20;5.93;;;3.10;;
16820;SDS011;8527;49.740;6.604;2022-07-29T21:28:24;3.78;;;2.97;;
16820;SDS011;8527;49.740;6.604;2022-07-29T21:33:30;6.38;;;3.15;;
16820;SDS011;8527;49.740;6.604;2022-07-29T21:38:30;6.68;;;3.20;;
16820;SDS011;8527;49.740;6.604;2022-07-29T21:43:31;4.43;;;2.85;;
16820;SDS011;8527;49.740;6.604;2022-07-29T21:48:29;6.82;;;3.10;;
16820;SDS011;8527;49.740;6.604;2022-07-29T21:53:28;4.43;;;3.03;;
16820;SDS011;8527;49.740;6.604;2022-07-29T21:58:26;10.77;;;2.80;;
16820;SDS011;8527;49.740;6.604;2022-07-29T22:03:27;6.88;;;3.03;;
16820;SDS011;8527;49.740;6.604;2022-07-29T22:08:29;7.45;;;3.30;;
16820;SDS011;8527;49.740;6.604;2022-07-29T22:13:28;5.55;;;3.17;;
16820;SDS011;8527;49.740;6.604;2022-07-29T22:18:34;4.35;;;2.97;;
16820;SDS011;8527;49.740;6.604;2022-07-29T22:23:32;3.90;;;2.80;;
16820;SDS011;8527;49.740;6.604;2022-07-29T22:28:31;4.03;;;2.90;;
16820;SDS011;8527;49.740;6.604;2022-07-29T22:33:38;4.75;;;2.88;;
16820;SDS011;8527;49.740;6.604;2022-07-29T22:38:36;4.30;;;2.90;;
16820;SDS011;8527;49.740;6.604;2022-07-29T22:43:36;4.35;;;3.00;;
16820;SDS011;8527;49.740;6.604;2022-07-29T22:48:38;3.28;;;2.85;;
16820;SDS011;8527;49.740;6.604;2022-07-29T22:53:52;3.33;;;3.00;;
16820;SDS011;8527;49.740;6.604;2022-07-29T22:58:53;5.40;;;3.25;;
16820;SDS011;8527;49.740;6.604;2022-07-29T23:03:54;3.88;;;3.15;;
16820;SDS011;8527;49.740;6.604;2022-07-29T23:08:59;8.40;;;3.58;;
16820;SDS011;8527;49.740;6.604;2022-07-29T23:14:00;4.03;;;3.00;;
16820;SDS011;8527;49.740;6.604;2022-07-29T23:19:02;4.53;;;3.28;;
16820;SDS011;8527;49.740;6.604;2022-07-29T23:24:01;6.35;;;3.40;;
16820;SDS011;8527;49.740;6.604;2022-07-29T23:29:00;6.97;;;3.40;;
16820;SDS011;8527;49.740;6.604;2022-07-29T23:33:58;3.75;;;3.03;;
16820;SDS011;8527;49.740;6.604;2022-07-29T23:39:00;6.40;;;3.40;;
16820;SDS011;8527;49.740;6.604;2022-07-29T23:43:58;7.88;;;3.22;;
16820;SDS011;8527;49.740;6.604;2022-07-29T23:48:56;6.38;;;3.45;;
16820;SDS011;8527;49.740;6.604;2022-07-29T23:53:55;13.25;;;3.33;;
16820;SDS011;8527;49.740;6.604;2022-07-29T23:58:57;4.95;;;3.22;;
